sensor_id;sensor_type;location;lat;lon;timestamp;P1;durP1;ratioP1;P2;durP2;ratioP2
4911;SDS011;2471;47.056;8.350;2023-04-25T00:01:14;4.20;;;2.80;;
4911;SDS011;2471;47.056;8.350;2023-04-25T00:03:40;7.17;;;2.40;;
4911;SDS011;2471;47.056;8.350;2023-04-25T00:06:06;3.00;;;2.27;;
4911;SDS011;2471;47.056;8.350;2023-04-25T00:08:33;4.97;;;2.53;;
4911;SDS011;2471;47.056;8.350;2023-04-25T00:10:59;4.40;;;3.00;;
4911;SDS011;2471;47.056;8.350;2023-04-25T00:13:25;3.17;;;2.17;;
4911;SDS011;2471;47.056;8.350;2023-04-25T00:15:52;4.17;;;2.77;;
4911;SDS011;2471;47.056;8.350;2023-04-25T00:18:18;5.40;;;3.10;;
4911;SDS011;2471;47.056;8.350;2023-04-25T00:20:44;6.33;;;2.53;;
4911;SDS011;2471;47.056;8.350;2023-04-25T00:23:11;3.17;;;2.70;;
4911;SDS011;2471;47.056;8.350;2023-04-25T00:25:37;8.63;;;3.43;;
4911;SDS011;2471;47.056;8.350;2023-04-25T00:28:03;4.80;;;2.30;;
4911;SDS011;2471;47.056;8.350;2023-04-25T00:30:29;10.23;;;3.83;;
4911;SDS011;2471;47.056;8.350;2023-04-25T00:32:55;5.00;;;2.60;;
4911;SDS011;2471;47.056;8.350;2023-04-25T00:35:21;3.97;;;2.23;;
4911;SDS011;2471;47.056;8.350;2023-04-25T00:37:47;5.80;;;2.50;;
4911;SDS011;2471;47.056;8.350;2023-04-25T00:40:13;4.87;;;2.00;;
4911;SDS011;2471;47.056;8.350;2023-04-25T00:42:39;5.00;;;2.80;;
4911;SDS011;2471;47.056;8.350;2023-04-25T00:45:06;3.73;;;2.30;;
4911;SDS011;2471;47.056;8.350;2023-04-25T00:47:32;8.90;;;3.03;;
4911;SDS011;2471;47.056;8.350;2023-04-25T00:49:59;8.47;;;2.93;;
4911;SDS011;2471;47.056;8.350;2023-04-25T00:52:25;4.20;;;2.93;;
4911;SDS011;2471;47.056;8.350;2023-04-25T00:54:51;5.87;;;2.73;;
4911;SDS011;2471;47.056;8.350;2023-04-25T00:57:16;1.97;;;1.87;;
4911;SDS011;2471;47.056;8.350;2023-04-25T00:59:44;5.60;;;2.17;;
4911;SDS011;2471;47.056;8.350;2023-04-25T01:02:11;7.10;;;2.43;;
4911;SDS011;2471;47.056;8.350;2023-04-25T01:04:38;4.27;;;2.70;;
4911;SDS011;2471;47.056;8.350;2023-04-25T01:07:05;5.87;;;2.07;;
4911;SDS011;2471;47.056;8.350;2023-04-25T01:09:31;10.50;;;4.97;;
4911;SDS011;2471;47.056;8.350;2023-04-25T01:11:57;3.97;;;3.20;;
4911;SDS011;2471;47.056;8.350;2023-04-25T01:14:23;14.40;;;3.20;;
4911;SDS011;2471;47.056;8.350;2023-04-25T01:16:49;9.00;;;5.10;;
4911;SDS011;2471;47.056;8.350;2023-04-25T01:19:16;3.10;;;2.67;;
4911;SDS011;2471;47.056;8.350;2023-04-25T01:21:43;9.13;;;3.43;;
4911;SDS011;2471;47.056;8.350;2023-04-25T01:24:10;9.70;;;2.80;;
4911;SDS011;2471;47.056;8.350;2023-04-25T01:26:36;2.93;;;2.27;;
4911;SDS011;2471;47.056;8.350;2023-04-25T01:29:03;2.47;;;2.17;;
4911;SDS011;2471;47.056;8.350;2023-04-25T01:31:30;3.30;;;2.30;;
4911;SDS011;2471;47.056;8.350;2023-04-25T01:33:56;5.23;;;3.00;;
4911;SDS011;2471;47.056;8.350;2023-04-25T01:36:22;4.10;;;2.23;;
4911;SDS011;2471;47.056;8.350;2023-04-25T01:38:47;2.97;;;2.60;;
4911;SDS011;2471;47.056;8.350;2023-04-25T01:41:14;4.67;;;2.33;;
4911;SDS011;2471;47.056;8.350;2023-04-25T01:43:40;7.50;;;2.43;;
4911;SDS011;2471;47.056;8.350;2023-04-25T01:46:06;4.50;;;2.43;;
4911;SDS011;2471;47.056;8.350;2023-04-25T01:48:32;6.00;;;2.60;;
4911;SDS011;2471;47.056;8.350;2023-04-25T01:50:58;2.43;;;2.20;;
4911;SDS011;2471;47.056;8.350;2023-04-25T01:53:24;5.93;;;2.70;;
4911;SDS011;2471;47.056;8.350;2023-04-25T01:55:50;6.50;;;2.30;;
4911;SDS011;2471;47.056;8.350;2023-04-25T01:58:16;12.30;;;2.57;;
4911;SDS011;2471;47.056;8.350;2023-04-25T02:00:42;5.63;;;2.47;;
4911;SDS011;2471;47.056;8.350;2023-04-25T02:03:09;5.13;;;2.70;;
4911;SDS011;2471;47.056;8.350;2023-04-25T02:05:38;5.17;;;2.00;;
4911;SDS011;2471;47.056;8.350;2023-04-25T02:08:05;4.47;;;2.60;;
4911;SDS011;2471;47.056;8.350;2023-04-25T02:10:32;4.30;;;2.63;;
4911;SDS011;2471;47.056;8.350;2023-04-25T02:12:58;4.63;;;2.70;;
4911;SDS011;2471;47.056;8.350;2023-04-25T02:15:24;7.50;;;2.13;;
4911;SDS011;2471;47.056;8.350;2023-04-25T02:17:50;11.30;;;3.30;;
4911;SDS011;2471;47.056;8.350;2023-04-25T02:20:22;6.73;;;2.60;;
4911;SDS011;2471;47.056;8.350;2023-04-25T02:22:49;8.60;;;2.80;;
4911;SDS011;2471;47.056;8.350;2023-04-25T02:25:15;13.60;;;3.17;;
4911;SDS011;2471;47.056;8.350;2023-04-25T02:27:41;8.57;;;2.70;;
4911;SDS011;2471;47.056;8.350;2023-04-25T02:30:08;6.50;;;2.60;;
4911;SDS011;2471;47.056;8.350;2023-04-25T02:32:34;6.37;;;2.13;;
4911;SDS011;2471;47.056;8.350;2023-04-25T02:35:00;4.40;;;2.40;;
4911;SDS011;2471;47.056;8.350;2023-04-25T02:37:30;5.30;;;2.43;;
4911;SDS011;2471;47.056;8.350;2023-04-25T02:39:56;4.70;;;2.20;;
4911;SDS011;2471;47.056;8.350;2023-04-25T02:42:22;4.37;;;2.30;;
4911;SDS011;2471;47.056;8.350;2023-04-25T02:44:48;5.17;;;2.50;;
4911;SDS011;2471;47.056;8.350;2023-04-25T02:47:14;5.50;;;2.47;;
4911;SDS011;2471;47.056;8.350;2023-04-25T02:49:40;3.33;;;2.30;;
4911;SDS011;2471;47.056;8.350;2023-04-25T02:52:06;4.87;;;2.30;;
4911;SDS011;2471;47.056;8.350;2023-04-25T02:54:32;4.57;;;2.10;;
4911;SDS011;2471;47.056;8.350;2023-04-25T02:56:58;4.27;;;2.20;;
4911;SDS011;2471;47.056;8.350;2023-04-25T02:59:24;5.13;;;2.40;;
4911;SDS011;2471;47.056;8.350;2023-04-25T03:01:49;3.27;;;2.67;;
4911;SDS011;2471;47.056;8.350;2023-04-25T03:04:15;2.90;;;2.70;;
4911;SDS011;2471;47.056;8.350;2023-04-25T03:06:43;4.60;;;2.83;;
4911;SDS011;2471;47.056;8.350;2023-04-25T03:09:09;3.17;;;2.60;;
4911;SDS011;2471;47.056;8.350;2023-04-25T03:11:36;4.13;;;2.67;;
4911;SDS011;2471;47.056;8.350;2023-04-25T03:14:02;5.60;;;2.80;;
4911;SDS011;2471;47.056;8.350;2023-04-25T03:16:28;11.60;;;2.30;;
4911;SDS011;2471;47.056;8.350;2023-04-25T03:18:54;8.20;;;5.10;;
4911;SDS011;2471;47.056;8.350;2023-04-25T03:21:20;6.73;;;4.33;;
4911;SDS011;2471;47.056;8.350;2023-04-25T03:23:46;10.73;;;3.10;;
4911;SDS011;2471;47.056;8.350;2023-04-25T03:26:12;8.43;;;2.70;;
4911;SDS011;2471;47.056;8.350;2023-04-25T03:28:38;6.97;;;2.40;;
4911;SDS011;2471;47.056;8.350;2023-04-25T03:31:05;7.20;;;3.57;;
4911;SDS011;2471;47.056;8.350;2023-04-25T03:33:31;9.70;;;2.60;;
4911;SDS011;2471;47.056;8.350;2023-04-25T03:35:57;7.60;;;2.50;;
4911;SDS011;2471;47.056;8.350;2023-04-25T03:38:22;8.57;;;2.70;;
4911;SDS011;2471;47.056;8.350;2023-04-25T03:40:49;7.20;;;2.40;;
4911;SDS011;2471;47.056;8.350;2023-04-25T03:43:15;8.27;;;2.87;;
4911;SDS011;2471;47.056;8.350;2023-04-25T03:45:41;7.10;;;2.60;;
4911;SDS011;2471;47.056;8.350;2023-04-25T03:48:07;4.57;;;2.77;;
4911;SDS011;2471;47.056;8.350;2023-04-25T03:50:34;3.83;;;2.60;;
4911;SDS011;2471;47.056;8.350;2023-04-25T03:53:00;7.40;;;3.00;;
4911;SDS011;2471;47.056;8.350;2023-04-25T03:55:26;3.20;;;2.70;;
4911;SDS011;2471;47.056;8.350;2023-04-25T03:57:52;3.00;;;2.53;;
4911;SDS011;2471;47.056;8.350;2023-04-25T04:00:17;9.83;;;2.77;;
4911;SDS011;2471;47.056;8.350;2023-04-25T04:02:43;2.90;;;2.30;;
4911;SDS011;2471;47.056;8.350;2023-04-25T04:05:09;5.13;;;2.57;;
4911;SDS011;2471;47.056;8.350;2023-04-25T04:07:35;4.47;;;2.77;;
4911;SDS011;2471;47.056;8.350;2023-04-25T04:10:06;8.37;;;3.37;;
4911;SDS011;2471;47.056;8.350;2023-04-25T04:12:32;3.10;;;2.83;;
4911;SDS011;2471;47.056;8.350;2023-04-25T04:14:58;2.90;;;2.23;;
4911;SDS011;2471;47.056;8.350;2023-04-25T04:17:24;4.10;;;3.27;;
4911;SDS011;2471;47.056;8.350;2023-04-25T04:19:50;5.93;;;2.23;;
4911;SDS011;2471;47.056;8.350;2023-04-25T04:22:16;3.93;;;2.00;;
4911;SDS011;2471;47.056;8.350;2023-04-25T04:24:42;5.60;;;2.00;;
4911;SDS011;2471;47.056;8.350;2023-04-25T04:27:09;3.93;;;2.00;;
4911;SDS011;2471;47.056;8.350;2023-04-25T04:29:35;5.03;;;2.67;;
4911;SDS011;2471;47.056;8.350;2023-04-25T04:32:01;2.93;;;2.17;;
4911;SDS011;2471;47.056;8.350;2023-04-25T04:34:28;3.50;;;1.97;;
4911;SDS011;2471;47.056;8.350;2023-04-25T04:36:54;4.67;;;3.13;;
4911;SDS011;2471;47.056;8.350;2023-04-25T04:39:20;7.70;;;1.80;;
4911;SDS011;2471;47.056;8.350;2023-04-25T04:41:46;3.33;;;2.20;;
4911;SDS011;2471;47.056;8.350;2023-04-25T04:44:12;3.23;;;1.87;;
4911;SDS011;2471;47.056;8.350;2023-04-25T04:46:39;6.77;;;1.70;;
4911;SDS011;2471;47.056;8.350;2023-04-25T04:49:07;3.60;;;1.93;;
4911;SDS011;2471;47.056;8.350;2023-04-25T04:51:33;5.33;;;2.20;;
4911;SDS011;2471;47.056;8.350;2023-04-25T04:53:59;8.13;;;2.30;;
4911;SDS011;2471;47.056;8.350;2023-04-25T04:56:27;7.30;;;2.60;;
4911;SDS011;2471;47.056;8.350;2023-04-25T04:58:55;3.77;;;2.17;;
4911;SDS011;2471;47.056;8.350;2023-04-25T05:01:21;5.00;;;3.30;;
4911;SDS011;2471;47.056;8.350;2023-04-25T05:03:47;10.00;;;3.00;;
4911;SDS011;2471;47.056;8.350;2023-04-25T05:06:13;9.83;;;2.70;;
4911;SDS011;2471;47.056;8.350;2023-04-25T05:08:39;7.20;;;2.77;;
4911;SDS011;2471;47.056;8.350;2023-04-25T05:11:06;4.20;;;2.07;;
4911;SDS011;2471;47.056;8.350;2023-04-25T05:13:31;2.50;;;1.73;;
4911;SDS011;2471;47.056;8.350;2023-04-25T05:15:57;4.87;;;1.90;;
4911;SDS011;2471;47.056;8.350;2023-04-25T05:18:23;1.80;;;1.70;;
4911;SDS011;2471;47.056;8.350;2023-04-25T05:20:49;3.07;;;1.67;;
4911;SDS011;2471;47.056;8.350;2023-04-25T05:23:15;3.87;;;1.80;;
4911;SDS011;2471;47.056;8.350;2023-04-25T05:25:41;3.00;;;1.97;;
4911;SDS011;2471;47.056;8.350;2023-04-25T05:28:07;6.40;;;2.27;;
4911;SDS011;2471;47.056;8.350;2023-04-25T05:30:34;1.97;;;1.70;;
4911;SDS011;2471;47.056;8.350;2023-04-25T05:33:00;7.20;;;1.90;;
4911;SDS011;2471;47.056;8.350;2023-04-25T05:35:26;2.47;;;2.10;;
4911;SDS011;2471;47.056;8.350;2023-04-25T05:37:52;3.57;;;2.40;;
4911;SDS011;2471;47.056;8.350;2023-04-25T05:40:18;3.37;;;2.10;;
4911;SDS011;2471;47.056;8.350;2023-04-25T05:42:44;1.90;;;1.80;;
4911;SDS011;2471;47.056;8.350;2023-04-25T05:45:11;4.83;;;2.00;;
4911;SDS011;2471;47.056;8.350;2023-04-25T05:47:37;7.13;;;2.60;;
4911;SDS011;2471;47.056;8.350;2023-04-25T05:50:02;2.63;;;2.07;;
4911;SDS011;2471;47.056;8.350;2023-04-25T05:52:29;7.90;;;2.60;;
4911;SDS011;2471;47.056;8.350;2023-04-25T05:54:54;5.70;;;2.03;;
4911;SDS011;2471;47.056;8.350;2023-04-25T05:57:22;2.10;;;1.90;;
4911;SDS011;2471;47.056;8.350;2023-04-25T05:59:48;7.60;;;2.80;;
4911;SDS011;2471;47.056;8.350;2023-04-25T06:02:14;3.50;;;2.70;;
4911;SDS011;2471;47.056;8.350;2023-04-25T06:04:40;4.07;;;3.47;;
4911;SDS011;2471;47.056;8.350;2023-04-25T06:07:06;8.43;;;2.50;;
4911;SDS011;2471;47.056;8.350;2023-04-25T06:09:32;6.17;;;1.70;;
4911;SDS011;2471;47.056;8.350;2023-04-25T06:11:58;3.10;;;1.87;;
4911;SDS011;2471;47.056;8.350;2023-04-25T06:14:24;2.33;;;2.00;;
4911;SDS011;2471;47.056;8.350;2023-04-25T06:16:49;16.23;;;5.57;;
4911;SDS011;2471;47.056;8.350;2023-04-25T06:19:15;6.87;;;2.13;;
4911;SDS011;2471;47.056;8.350;2023-04-25T06:21:42;5.50;;;2.27;;
4911;SDS011;2471;47.056;8.350;2023-04-25T06:24:09;2.30;;;2.10;;
4911;SDS011;2471;47.056;8.350;2023-04-25T06:26:35;6.33;;;1.63;;
4911;SDS011;2471;47.056;8.350;2023-04-25T06:29:01;3.77;;;1.90;;
4911;SDS011;2471;47.056;8.350;2023-04-25T06:31:27;4.93;;;2.13;;
4911;SDS011;2471;47.056;8.350;2023-04-25T06:33:58;3.40;;;2.17;;
4911;SDS011;2471;47.056;8.350;2023-04-25T06:36:23;5.83;;;2.07;;
4911;SDS011;2471;47.056;8.350;2023-04-25T06:38:52;3.87;;;1.93;;
4911;SDS011;2471;47.056;8.350;2023-04-25T06:41:18;4.10;;;1.87;;
4911;SDS011;2471;47.056;8.350;2023-04-25T06:43:44;3.83;;;1.80;;
4911;SDS011;2471;47.056;8.350;2023-04-25T06:46:10;6.00;;;2.37;;
4911;SDS011;2471;47.056;8.350;2023-04-25T06:48:36;3.70;;;2.30;;
4911;SDS011;2471;47.056;8.350;2023-04-25T06:51:02;4.47;;;2.30;;
4911;SDS011;2471;47.056;8.350;2023-04-25T06:53:28;2.30;;;2.10;;
4911;SDS011;2471;47.056;8.350;2023-04-25T06:55:54;5.80;;;3.07;;
4911;SDS011;2471;47.056;8.350;2023-04-25T06:58:20;4.70;;;3.00;;
4911;SDS011;2471;47.056;8.350;2023-04-25T07:00:46;6.13;;;2.53;;
4911;SDS011;2471;47.056;8.350;2023-04-25T07:03:12;3.07;;;2.60;;
4911;SDS011;2471;47.056;8.350;2023-04-25T07:05:38;6.13;;;3.33;;
4911;SDS011;2471;47.056;8.350;2023-04-25T07:08:04;3.63;;;2.53;;
4911;SDS011;2471;47.056;8.350;2023-04-25T07:10:30;5.17;;;2.73;;
4911;SDS011;2471;47.056;8.350;2023-04-25T07:12:56;2.83;;;2.63;;
4911;SDS011;2471;47.056;8.350;2023-04-25T07:15:22;4.60;;;2.60;;
4911;SDS011;2471;47.056;8.350;2023-04-25T07:17:48;3.40;;;2.63;;
4911;SDS011;2471;47.056;8.350;2023-04-25T07:20:14;2.90;;;2.60;;
4911;SDS011;2471;47.056;8.350;2023-04-25T07:22:41;4.43;;;3.10;;
4911;SDS011;2471;47.056;8.350;2023-04-25T07:25:07;6.40;;;3.03;;
4911;SDS011;2471;47.056;8.350;2023-04-25T07:27:33;5.83;;;3.07;;
4911;SDS011;2471;47.056;8.350;2023-04-25T07:29:59;4.80;;;2.70;;
4911;SDS011;2471;47.056;8.350;2023-04-25T07:32:25;6.30;;;2.90;;
4911;SDS011;2471;47.056;8.350;2023-04-25T07:34:52;4.40;;;3.23;;
4911;SDS011;2471;47.056;8.350;2023-04-25T07:37:18;8.33;;;3.53;;
4911;SDS011;2471;47.056;8.350;2023-04-25T07:39:44;4.60;;;3.07;;
4911;SDS011;2471;47.056;8.350;2023-04-25T07:42:13;3.90;;;2.67;;
4911;SDS011;2471;47.056;8.350;2023-04-25T07:44:39;3.80;;;2.67;;
4911;SDS011;2471;47.056;8.350;2023-04-25T07:47:06;3.87;;;2.47;;
4911;SDS011;2471;47.056;8.350;2023-04-25T07:49:32;3.40;;;2.27;;
4911;SDS011;2471;47.056;8.350;2023-04-25T07:51:58;2.90;;;1.93;;
4911;SDS011;2471;47.056;8.350;2023-04-25T07:54:24;2.83;;;2.50;;
4911;SDS011;2471;47.056;8.350;2023-04-25T07:56:50;2.20;;;2.00;;
4911;SDS011;2471;47.056;8.350;2023-04-25T07:59:16;3.87;;;2.53;;
4911;SDS011;2471;47.056;8.350;2023-04-25T08:01:42;7.30;;;2.47;;
4911;SDS011;2471;47.056;8.350;2023-04-25T08:04:08;2.10;;;2.00;;
4911;SDS011;2471;47.056;8.350;2023-04-25T08:06:34;2.80;;;2.40;;
4911;SDS011;2471;47.056;8.350;2023-04-25T08:09:00;2.57;;;2.30;;
4911;SDS011;2471;47.056;8.350;2023-04-25T08:11:26;2.53;;;2.33;;
4911;SDS011;2471;47.056;8.350;2023-04-25T08:13:52;5.63;;;2.17;;
4911;SDS011;2471;47.056;8.350;2023-04-25T08:16:18;2.70;;;2.40;;
4911;SDS011;2471;47.056;8.350;2023-04-25T08:18:44;7.47;;;2.20;;
4911;SDS011;2471;47.056;8.350;2023-04-25T08:21:10;3.80;;;2.07;;
4911;SDS011;2471;47.056;8.350;2023-04-25T08:23:37;4.13;;;2.90;;
4911;SDS011;2471;47.056;8.350;2023-04-25T08:26:03;2.27;;;2.07;;
4911;SDS011;2471;47.056;8.350;2023-04-25T08:28:29;6.00;;;2.40;;
4911;SDS011;2471;47.056;8.350;2023-04-25T08:30:55;8.50;;;2.37;;
4911;SDS011;2471;47.056;8.350;2023-04-25T08:33:21;3.93;;;2.63;;
4911;SDS011;2471;47.056;8.350;2023-04-25T08:35:47;2.73;;;2.03;;
4911;SDS011;2471;47.056;8.350;2023-04-25T08:38:13;3.20;;;2.37;;
4911;SDS011;2471;47.056;8.350;2023-04-25T08:40:39;2.77;;;2.10;;
4911;SDS011;2471;47.056;8.350;2023-04-25T08:43:06;4.10;;;2.07;;
4911;SDS011;2471;47.056;8.350;2023-04-25T08:45:38;5.63;;;2.53;;
4911;SDS011;2471;47.056;8.350;2023-04-25T08:48:06;4.73;;;2.43;;
4911;SDS011;2471;47.056;8.350;2023-04-25T08:50:33;4.73;;;2.50;;
4911;SDS011;2471;47.056;8.350;2023-04-25T08:52:59;8.23;;;3.13;;
4911;SDS011;2471;47.056;8.350;2023-04-25T08:55:28;6.53;;;3.00;;
4911;SDS011;2471;47.056;8.350;2023-04-25T08:57:55;3.63;;;2.73;;
4911;SDS011;2471;47.056;8.350;2023-04-25T09:00:21;4.30;;;2.53;;
4911;SDS011;2471;47.056;8.350;2023-04-25T09:02:48;8.27;;;3.13;;
4911;SDS011;2471;47.056;8.350;2023-04-25T09:05:14;2.77;;;2.10;;
4911;SDS011;2471;47.056;8.350;2023-04-25T09:07:40;2.90;;;2.70;;
4911;SDS011;2471;47.056;8.350;2023-04-25T09:10:06;2.67;;;2.40;;
4911;SDS011;2471;47.056;8.350;2023-04-25T09:12:32;4.07;;;2.23;;
4911;SDS011;2471;47.056;8.350;2023-04-25T09:15:08;2.50;;;1.57;;
4911;SDS011;2471;47.056;8.350;2023-04-25T09:17:34;3.13;;;1.50;;
4911;SDS011;2471;47.056;8.350;2023-04-25T09:20:08;1.90;;;1.50;;
4911;SDS011;2471;47.056;8.350;2023-04-25T09:22:35;7.67;;;5.50;;
4911;SDS011;2471;47.056;8.350;2023-04-25T09:25:02;2.70;;;2.37;;
4911;SDS011;2471;47.056;8.350;2023-04-25T09:27:28;2.20;;;1.90;;
4911;SDS011;2471;47.056;8.350;2023-04-25T09:29:58;1.73;;;1.63;;
4911;SDS011;2471;47.056;8.350;2023-04-25T09:32:27;2.00;;;1.80;;
4911;SDS011;2471;47.056;8.350;2023-04-25T09:34:56;3.63;;;1.97;;
4911;SDS011;2471;47.056;8.350;2023-04-25T09:39:49;1.93;;;1.60;;
4911;SDS011;2471;47.056;8.350;2023-04-25T09:42:16;2.10;;;2.00;;
4911;SDS011;2471;47.056;8.350;2023-04-25T09:44:43;3.23;;;1.90;;
4911;SDS011;2471;47.056;8.350;2023-04-25T09:47:10;2.00;;;1.87;;
4911;SDS011;2471;47.056;8.350;2023-04-25T09:49:38;2.60;;;2.03;;
4911;SDS011;2471;47.056;8.350;2023-04-25T09:52:05;3.10;;;2.23;;
4911;SDS011;2471;47.056;8.350;2023-04-25T09:54:31;4.10;;;2.33;;
4911;SDS011;2471;47.056;8.350;2023-04-25T09:56:57;1.63;;;1.53;;
4911;SDS011;2471;47.056;8.350;2023-04-25T09:59:27;1.97;;;1.83;;
4911;SDS011;2471;47.056;8.350;2023-04-25T10:01:56;2.03;;;1.93;;
4911;SDS011;2471;47.056;8.350;2023-04-25T10:04:23;2.80;;;2.13;;
4911;SDS011;2471;47.056;8.350;2023-04-25T10:06:51;2.23;;;2.03;;
4911;SDS011;2471;47.056;8.350;2023-04-25T10:09:21;4.43;;;2.17;;
4911;SDS011;2471;47.056;8.350;2023-04-25T10:11:51;2.00;;;1.87;;
4911;SDS011;2471;47.056;8.350;2023-04-25T10:14:18;6.70;;;1.97;;
4911;SDS011;2471;47.056;8.350;2023-04-25T10:16:44;4.13;;;1.90;;
4911;SDS011;2471;47.056;8.350;2023-04-25T10:19:10;2.17;;;1.97;;
4911;SDS011;2471;47.056;8.350;2023-04-25T10:21:42;1.80;;;1.70;;
4911;SDS011;2471;47.056;8.350;2023-04-25T10:24:10;1.90;;;1.80;;
4911;SDS011;2471;47.056;8.350;2023-04-25T10:26:36;2.43;;;2.20;;
4911;SDS011;2471;47.056;8.350;2023-04-25T10:29:03;2.37;;;2.17;;
4911;SDS011;2471;47.056;8.350;2023-04-25T10:31:29;3.03;;;2.30;;
4911;SDS011;2471;47.056;8.350;2023-04-25T10:33:56;2.30;;;2.10;;
4911;SDS011;2471;47.056;8.350;2023-04-25T10:36:22;2.70;;;2.20;;
4911;SDS011;2471;47.056;8.350;2023-04-25T10:38:49;2.57;;;2.37;;
4911;SDS011;2471;47.056;8.350;2023-04-25T10:41:17;4.37;;;2.30;;
4911;SDS011;2471;47.056;8.350;2023-04-25T10:43:44;2.20;;;2.00;;
4911;SDS011;2471;47.056;8.350;2023-04-25T10:48:43;3.70;;;2.17;;
4911;SDS011;2471;47.056;8.350;2023-04-25T10:51:12;3.80;;;2.30;;
4911;SDS011;2471;47.056;8.350;2023-04-25T10:53:41;2.47;;;2.27;;
4911;SDS011;2471;47.056;8.350;2023-04-25T10:56:10;4.70;;;3.00;;
4911;SDS011;2471;47.056;8.350;2023-04-25T10:58:41;2.83;;;2.60;;
4911;SDS011;2471;47.056;8.350;2023-04-25T11:01:07;3.10;;;2.73;;
4911;SDS011;2471;47.056;8.350;2023-04-25T11:03:37;4.50;;;2.87;;
4911;SDS011;2471;47.056;8.350;2023-04-25T11:06:03;3.60;;;1.93;;
4911;SDS011;2471;47.056;8.350;2023-04-25T11:08:36;3.40;;;2.30;;
4911;SDS011;2471;47.056;8.350;2023-04-25T11:11:04;1.50;;;1.40;;
4911;SDS011;2471;47.056;8.350;2023-04-25T11:13:30;4.77;;;1.77;;
4911;SDS011;2471;47.056;8.350;2023-04-25T11:15:56;3.27;;;1.80;;
4911;SDS011;2471;47.056;8.350;2023-04-25T11:18:25;3.07;;;1.73;;
4911;SDS011;2471;47.056;8.350;2023-04-25T11:20:51;1.53;;;1.30;;
4911;SDS011;2471;47.056;8.350;2023-04-25T11:23:17;1.93;;;1.40;;
4911;SDS011;2471;47.056;8.350;2023-04-25T11:25:43;1.03;;;1.03;;
4911;SDS011;2471;47.056;8.350;2023-04-25T11:28:09;2.33;;;1.60;;
4911;SDS011;2471;47.056;8.350;2023-04-25T11:30:35;1.20;;;1.10;;
4911;SDS011;2471;47.056;8.350;2023-04-25T11:33:01;1.73;;;1.17;;
4911;SDS011;2471;47.056;8.350;2023-04-25T11:35:28;1.60;;;1.43;;
4911;SDS011;2471;47.056;8.350;2023-04-25T11:37:54;3.50;;;1.40;;
4911;SDS011;2471;47.056;8.350;2023-04-25T11:40:20;2.60;;;1.37;;
4911;SDS011;2471;47.056;8.350;2023-04-25T11:42:46;1.80;;;1.37;;
4911;SDS011;2471;47.056;8.350;2023-04-25T11:45:13;1.83;;;1.73;;
4911;SDS011;2471;47.056;8.350;2023-04-25T11:47:39;2.07;;;1.43;;
4911;SDS011;2471;47.056;8.350;2023-04-25T11:50:06;1.67;;;1.57;;
4911;SDS011;2471;47.056;8.350;2023-04-25T11:55:03;1.00;;;1.00;;
4911;SDS011;2471;47.056;8.350;2023-04-25T11:57:30;1.47;;;1.37;;
4911;SDS011;2471;47.056;8.350;2023-04-25T12:00:04;1.63;;;1.53;;
4911;SDS011;2471;47.056;8.350;2023-04-25T12:02:31;1.83;;;1.47;;
4911;SDS011;2471;47.056;8.350;2023-04-25T12:04:59;1.97;;;1.60;;
4911;SDS011;2471;47.056;8.350;2023-04-25T12:07:28;2.77;;;1.70;;
4911;SDS011;2471;47.056;8.350;2023-04-25T12:09:55;1.30;;;1.20;;
4911;SDS011;2471;47.056;8.350;2023-04-25T12:12:21;1.30;;;1.20;;
4911;SDS011;2471;47.056;8.350;2023-04-25T12:14:47;2.13;;;1.70;;
4911;SDS011;2471;47.056;8.350;2023-04-25T12:17:14;6.53;;;2.10;;
4911;SDS011;2471;47.056;8.350;2023-04-25T12:19:40;2.00;;;1.17;;
4911;SDS011;2471;47.056;8.350;2023-04-25T12:22:18;2.80;;;1.37;;
4911;SDS011;2471;47.056;8.350;2023-04-25T12:24:45;3.83;;;1.90;;
4911;SDS011;2471;47.056;8.350;2023-04-25T12:27:11;1.10;;;1.00;;
4911;SDS011;2471;47.056;8.350;2023-04-25T12:29:50;1.33;;;1.17;;
4911;SDS011;2471;47.056;8.350;2023-04-25T12:32:16;1.30;;;1.20;;
4911;SDS011;2471;47.056;8.350;2023-04-25T12:34:42;0.93;;;0.93;;
4911;SDS011;2471;47.056;8.350;2023-04-25T12:37:09;1.30;;;1.10;;
4911;SDS011;2471;47.056;8.350;2023-04-25T12:39:35;1.40;;;1.20;;
4911;SDS011;2471;47.056;8.350;2023-04-25T12:42:01;1.83;;;1.17;;
4911;SDS011;2471;47.056;8.350;2023-04-25T12:44:28;1.10;;;1.00;;
4911;SDS011;2471;47.056;8.350;2023-04-25T12:46:54;1.50;;;1.20;;
4911;SDS011;2471;47.056;8.350;2023-04-25T12:49:20;1.40;;;1.30;;
4911;SDS011;2471;47.056;8.350;2023-04-25T12:51:46;1.63;;;1.10;;
4911;SDS011;2471;47.056;8.350;2023-04-25T12:54:12;2.80;;;1.50;;
4911;SDS011;2471;47.056;8.350;2023-04-25T12:56:39;3.20;;;2.07;;
4911;SDS011;2471;47.056;8.350;2023-04-25T12:59:06;1.20;;;1.10;;
4911;SDS011;2471;47.056;8.350;2023-04-25T13:01:32;1.73;;;0.93;;
4911;SDS011;2471;47.056;8.350;2023-04-25T13:03:58;1.17;;;1.07;;
4911;SDS011;2471;47.056;8.350;2023-04-25T13:06:24;1.97;;;0.80;;
4911;SDS011;2471;47.056;8.350;2023-04-25T13:08:51;1.03;;;1.03;;
4911;SDS011;2471;47.056;8.350;2023-04-25T13:11:17;2.50;;;0.90;;
4911;SDS011;2471;47.056;8.350;2023-04-25T13:13:43;0.87;;;0.87;;
4911;SDS011;2471;47.056;8.350;2023-04-25T13:16:09;2.43;;;2.07;;
4911;SDS011;2471;47.056;8.350;2023-04-25T13:18:36;1.60;;;1.40;;
4911;SDS011;2471;47.056;8.350;2023-04-25T13:21:02;1.77;;;0.90;;
4911;SDS011;2471;47.056;8.350;2023-04-25T13:23:28;4.97;;;2.00;;
4911;SDS011;2471;47.056;8.350;2023-04-25T13:25:55;2.70;;;1.53;;
4911;SDS011;2471;47.056;8.350;2023-04-25T13:28:22;1.40;;;1.30;;
4911;SDS011;2471;47.056;8.350;2023-04-25T13:30:48;1.17;;;1.07;;
4911;SDS011;2471;47.056;8.350;2023-04-25T13:33:14;1.00;;;0.90;;
4911;SDS011;2471;47.056;8.350;2023-04-25T13:35:40;1.20;;;1.10;;
4911;SDS011;2471;47.056;8.350;2023-04-25T13:38:07;1.20;;;1.10;;
4911;SDS011;2471;47.056;8.350;2023-04-25T13:40:34;1.27;;;1.10;;
4911;SDS011;2471;47.056;8.350;2023-04-25T13:43:00;2.50;;;1.10;;
4911;SDS011;2471;47.056;8.350;2023-04-25T13:45:27;0.83;;;0.83;;
4911;SDS011;2471;47.056;8.350;2023-04-25T13:47:53;1.33;;;0.97;;
4911;SDS011;2471;47.056;8.350;2023-04-25T13:50:19;4.00;;;0.80;;
4911;SDS011;2471;47.056;8.350;2023-04-25T13:52:47;1.00;;;1.00;;
4911;SDS011;2471;47.056;8.350;2023-04-25T13:55:13;2.60;;;1.13;;
4911;SDS011;2471;47.056;8.350;2023-04-25T13:57:39;1.17;;;0.80;;
4911;SDS011;2471;47.056;8.350;2023-04-25T14:00:06;1.50;;;1.13;;
4911;SDS011;2471;47.056;8.350;2023-04-25T14:02:33;3.57;;;1.27;;
4911;SDS011;2471;47.056;8.350;2023-04-25T14:04:59;1.10;;;1.00;;
4911;SDS011;2471;47.056;8.350;2023-04-25T14:07:25;1.10;;;0.90;;
4911;SDS011;2471;47.056;8.350;2023-04-25T14:09:52;2.13;;;0.87;;
4911;SDS011;2471;47.056;8.350;2023-04-25T14:12:17;1.47;;;1.00;;
4911;SDS011;2471;47.056;8.350;2023-04-25T14:14:43;1.17;;;1.00;;
4911;SDS011;2471;47.056;8.350;2023-04-25T14:17:10;0.90;;;0.80;;
4911;SDS011;2471;47.056;8.350;2023-04-25T14:19:36;1.00;;;0.90;;
4911;SDS011;2471;47.056;8.350;2023-04-25T14:22:03;1.10;;;0.93;;
4911;SDS011;2471;47.056;8.350;2023-04-25T14:24:29;1.13;;;1.03;;
4911;SDS011;2471;47.056;8.350;2023-04-25T14:26:55;1.60;;;1.20;;
4911;SDS011;2471;47.056;8.350;2023-04-25T14:29:21;2.13;;;1.20;;
4911;SDS011;2471;47.056;8.350;2023-04-25T14:31:47;1.00;;;1.00;;
4911;SDS011;2471;47.056;8.350;2023-04-25T14:34:14;1.57;;;0.90;;
4911;SDS011;2471;47.056;8.350;2023-04-25T14:36:40;1.10;;;1.00;;
4911;SDS011;2471;47.056;8.350;2023-04-25T14:39:06;1.90;;;1.50;;
4911;SDS011;2471;47.056;8.350;2023-04-25T14:41:32;0.77;;;0.67;;
4911;SDS011;2471;47.056;8.350;2023-04-25T14:43:58;1.67;;;1.57;;
4911;SDS011;2471;47.056;8.350;2023-04-25T14:46:24;3.67;;;2.40;;
4911;SDS011;2471;47.056;8.350;2023-04-25T14:48:50;1.33;;;1.20;;
4911;SDS011;2471;47.056;8.350;2023-04-25T14:51:16;1.47;;;0.90;;
4911;SDS011;2471;47.056;8.350;2023-04-25T14:53:42;2.57;;;1.73;;
4911;SDS011;2471;47.056;8.350;2023-04-25T14:56:09;2.07;;;1.33;;
4911;SDS011;2471;47.056;8.350;2023-04-25T14:58:35;1.00;;;0.90;;
4911;SDS011;2471;47.056;8.350;2023-04-25T15:01:01;3.23;;;0.70;;
4911;SDS011;2471;47.056;8.350;2023-04-25T15:03:27;6.43;;;3.97;;
4911;SDS011;2471;47.056;8.350;2023-04-25T15:05:54;2.30;;;1.80;;
4911;SDS011;2471;47.056;8.350;2023-04-25T15:08:20;1.20;;;1.10;;
4911;SDS011;2471;47.056;8.350;2023-04-25T15:10:46;1.27;;;0.90;;
4911;SDS011;2471;47.056;8.350;2023-04-25T15:13:12;1.10;;;1.00;;
4911;SDS011;2471;47.056;8.350;2023-04-25T15:15:38;1.07;;;0.87;;
4911;SDS011;2471;47.056;8.350;2023-04-25T15:18:05;1.47;;;0.90;;